createdAt,value
2019-02-07T00:01:48.155Z,-1.20
2019-02-07T00:04:17.660Z,-1.20
2019-02-07T00:06:47.211Z,-1.20
2019-02-07T00:09:17.060Z,-1.20
2019-02-07T00:11:46.974Z,-1.20
2019-02-07T00:14:16.523Z,-1.20
2019-02-07T00:16:46.096Z,-1.30
2019-02-07T00:19:15.643Z,-1.30
2019-02-07T00:21:45.002Z,-1.30
2019-02-07T00:24:14.404Z,-1.40
2019-02-07T00:26:44.051Z,-1.40
2019-02-07T00:29:13.536Z,-1.30
2019-02-07T00:31:42.798Z,-1.40
2019-02-07T00:34:12.066Z,-1.40
2019-02-07T00:36:41.379Z,-1.40
2019-02-07T00:39:10.799Z,-1.40
2019-02-07T00:41:40.263Z,-1.40
2019-02-07T00:44:09.638Z,-1.40
2019-02-07T00:46:39.046Z,-1.40
2019-02-07T00:49:09.936Z,-1.40
2019-02-07T00:51:39.345Z,-1.40
2019-02-07T00:54:08.747Z,-1.40
2019-02-07T00:56:40.403Z,-1.40
2019-02-07T00:59:09.953Z,-1.40
2019-02-07T01:01:41.395Z,-1.40
2019-02-07T01:04:10.728Z,-1.50
2019-02-07T01:06:39.998Z,-1.40
2019-02-07T01:09:11.070Z,-1.40
2019-02-07T01:11:40.367Z,-1.40
2019-02-07T01:14:09.655Z,-1.50
2019-02-07T01:16:40.079Z,-1.50
2019-02-07T01:19:09.575Z,-1.50
2019-02-07T01:21:39.207Z,-1.50
2019-02-07T01:24:08.923Z,-1.50
2019-02-07T01:26:38.254Z,-1.50
2019-02-07T01:29:07.855Z,-1.50
2019-02-07T01:31:37.050Z,-1.50
2019-02-07T01:34:06.450Z,-1.50
2019-02-07T01:36:35.791Z,-1.60
2019-02-07T01:39:08.507Z,-1.60
2019-02-07T01:41:37.796Z,-1.60
2019-02-07T01:44:07.304Z,-1.60
2019-02-07T01:46:36.929Z,-1.60
2019-02-07T01:49:06.206Z,-1.60
2019-02-07T01:51:35.623Z,-1.60
2019-02-07T01:54:05.033Z,-1.70
2019-02-07T01:56:34.639Z,-1.70
2019-02-07T01:59:04.011Z,-1.70
2019-02-07T02:01:33.647Z,-1.80
2019-02-07T02:04:03.019Z,-1.80
2019-02-07T02:06:32.383Z,-1.80
2019-02-07T02:09:01.606Z,-1.80
2019-02-07T02:11:31.015Z,-1.80
2019-02-07T02:14:00.328Z,-1.80
2019-02-07T02:16:30.048Z,-1.80
2019-02-07T02:18:59.496Z,-1.90
2019-02-07T02:21:28.776Z,-1.90
2019-02-07T02:23:58.051Z,-1.90
2019-02-07T02:26:27.346Z,-1.90
2019-02-07T02:28:57.413Z,-2.00
2019-02-07T02:31:26.862Z,-2.00
2019-02-07T02:33:56.222Z,-2.00
2019-02-07T02:36:25.520Z,-2.00
2019-02-07T02:38:54.778Z,-2.00
2019-02-07T02:41:24.175Z,-2.10
2019-02-07T02:43:53.566Z,-2.10
2019-02-07T02:46:23.311Z,-2.10
2019-02-07T02:48:52.807Z,-2.20
2019-02-07T02:51:22.411Z,-2.10
2019-02-07T02:53:53.414Z,-2.10
2019-02-07T02:56:22.686Z,-2.20
2019-02-07T02:58:52.059Z,-2.20
2019-02-07T03:01:52.319Z,-2.20
2019-02-07T03:04:31.360Z,-2.20
2019-02-07T03:07:20.956Z,-2.30
2019-02-07T03:10:08.138Z,-2.30
2019-02-07T03:12:55.391Z,-2.30
2019-02-07T03:15:49.298Z,-2.30
2019-02-07T03:18:34.401Z,-2.40
2019-02-07T03:21:24.524Z,-2.40
2019-02-07T03:24:07.522Z,-2.40
2019-02-07T03:26:47.105Z,-2.40
2019-02-07T03:29:31.794Z,-2.40
2019-02-07T03:32:11.733Z,-2.50
2019-02-07T03:35:02.188Z,-2.50
2019-02-07T03:37:50.563Z,-2.50
2019-02-07T03:40:37.792Z,-2.50
2019-02-07T03:43:31.528Z,-2.60
2019-02-07T03:46:34.775Z,-2.60
2019-02-07T03:49:39.954Z,-2.60
2019-02-07T03:52:27.787Z,-2.60
2019-02-07T03:55:09.279Z,-2.60
2019-02-07T03:58:01.730Z,-2.60
2019-02-07T04:01:05.236Z,-2.70
2019-02-07T04:03:43.205Z,-2.70
2019-02-07T04:06:21.785Z,-2.70
2019-02-07T04:09:08.491Z,-2.70
2019-02-07T04:11:55.578Z,-2.70
2019-02-07T04:14:42.451Z,-2.70
2019-02-07T04:17:33.819Z,-2.70
2019-02-07T04:20:25.072Z,-2.80
2019-02-07T04:23:19.320Z,-2.80
2019-02-07T04:26:10.673Z,-2.80
2019-02-07T04:28:58.959Z,-2.80
2019-02-07T04:32:02.426Z,-2.80
2019-02-07T04:34:55.609Z,-2.80
2019-02-07T04:37:43.333Z,-2.80
2019-02-07T04:40:31.677Z,-2.80
2019-02-07T04:43:19.005Z,-2.90
2019-02-07T04:46:26.730Z,-2.90
2019-02-07T04:49:21.283Z,-2.90
2019-02-07T04:52:09.636Z,-2.90
2019-02-07T04:55:00.723Z,-2.90
2019-02-07T04:58:04.317Z,-2.90
2019-02-07T05:00:44.537Z,-3.00
2019-02-07T05:03:52.148Z,-2.90
2019-02-07T05:06:41.198Z,-2.90
2019-02-07T05:09:30.651Z,-3.00
2019-02-07T05:12:30.788Z,-3.00
2019-02-07T05:15:12.250Z,-3.00
2019-02-07T05:18:17.824Z,-3.00
2019-02-07T05:20:58.937Z,-3.00
2019-02-07T05:23:53.323Z,-3.00
2019-02-07T05:26:44.247Z,-3.00
2019-02-07T05:29:25.189Z,-2.90
2019-02-07T05:32:05.362Z,-2.90
2019-02-07T05:34:52.483Z,-2.90
2019-02-07T05:37:39.538Z,-2.90
2019-02-07T05:40:34.711Z,-2.90
2019-02-07T05:43:24.187Z,-2.90
2019-02-07T05:46:24.543Z,-2.90
2019-02-07T05:49:11.462Z,-2.90
2019-02-07T05:51:56.485Z,-2.90
2019-02-07T05:54:50.755Z,-3.00
2019-02-07T05:57:37.819Z,-2.90
2019-02-07T06:00:27.337Z,-2.90
2019-02-07T06:03:15.636Z,-2.90
2019-02-07T06:06:01.838Z,-2.90
2019-02-07T06:08:55.950Z,-2.90
2019-02-07T06:11:42.565Z,-2.90
2019-02-07T06:14:29.816Z,-2.90
2019-02-07T06:17:14.641Z,-2.90
2019-02-07T06:19:57.412Z,-2.80
2019-02-07T06:22:34.958Z,-2.80
2019-02-07T06:25:12.916Z,-2.80
2019-02-07T06:27:58.595Z,-2.80
2019-02-07T06:30:48.082Z,-2.80
2019-02-07T06:33:54.723Z,-2.80
2019-02-07T06:36:36.211Z,-2.80
2019-02-07T06:39:28.599Z,-2.80
2019-02-07T06:42:25.983Z,-2.70
2019-02-07T06:45:29.155Z,-2.70
2019-02-07T06:48:32.915Z,-2.70
2019-02-07T06:51:35.806Z,-2.70
2019-02-07T06:54:15.835Z,-2.70
2019-02-07T06:57:02.560Z,-2.60
2019-02-07T06:59:52.056Z,-2.60
2019-02-07T07:02:49.355Z,-2.60
2019-02-07T07:05:38.892Z,-2.50
2019-02-07T07:08:28.668Z,-2.50
2019-02-07T07:11:19.588Z,-2.50
2019-02-07T07:13:54.114Z,-2.40
2019-02-07T07:16:31.643Z,-2.40
2019-02-07T07:19:18.385Z,-2.30
2019-02-07T07:22:02.323Z,-2.30
2019-02-07T07:24:49.650Z,-2.10
2019-02-07T07:27:34.618Z,-2.00
2019-02-07T07:30:22.783Z,-1.90
2019-02-07T07:33:09.895Z,-1.80
2019-02-07T07:36:07.135Z,-1.30
2019-02-07T07:39:03.225Z,-0.70
2019-02-07T07:41:45.118Z,-0.10
2019-02-07T07:44:33.501Z,0.30
2019-02-07T07:47:36.951Z,0.70
2019-02-07T07:50:24.538Z,1.20
2019-02-07T07:53:22.070Z,1.70
2019-02-07T07:55:59.963Z,2.10
2019-02-07T07:58:46.735Z,2.60
2019-02-07T08:01:44.458Z,2.90
2019-02-07T08:04:32.834Z,3.20
2019-02-07T08:07:11.683Z,3.50
2019-02-07T08:10:05.934Z,3.90
2019-02-07T08:12:54.355Z,4.30
2019-02-07T08:15:51.664Z,4.70
2019-02-07T08:18:55.425Z,4.90
2019-02-07T08:21:42.532Z,5.40
2019-02-07T08:24:21.273Z,5.80
2019-02-07T08:27:08.713Z,6.10
2019-02-07T08:30:06.221Z,6.50
2019-02-07T08:32:52.700Z,6.90
2019-02-07T08:35:41.538Z,7.20
2019-02-07T08:38:45.726Z,7.50
2019-02-07T08:41:32.297Z,7.70
2019-02-07T08:44:14.158Z,8.00
2019-02-07T08:46:57.218Z,8.30
2019-02-07T08:49:48.783Z,8.60
2019-02-07T08:52:51.770Z,8.80
2019-02-07T08:55:46.052Z,9.20
2019-02-07T08:58:32.933Z,9.70
2019-02-07T09:01:24.355Z,10.00
2019-02-07T09:04:15.727Z,10.30
2019-02-07T09:07:11.152Z,10.60
2019-02-07T09:09:59.431Z,10.80
2019-02-07T09:12:55.183Z,11.00
2019-02-07T09:15:42.176Z,11.00
2019-02-07T09:18:45.739Z,11.10
2019-02-07T09:21:23.894Z,11.50
2019-02-07T09:24:19.305Z,11.80
2019-02-07T09:27:00.662Z,11.90
2019-02-07T09:30:01.080Z,11.90
2019-02-07T09:33:04.604Z,12.10
2019-02-07T09:35:42.560Z,12.20
2019-02-07T09:38:39.638Z,12.50
2019-02-07T09:41:28.103Z,12.60
2019-02-07T09:44:08.191Z,12.90
2019-02-07T09:46:52.982Z,12.90
2019-02-07T09:49:30.640Z,13.20
2019-02-07T09:52:18.940Z,13.40
2019-02-07T09:55:17.254Z,13.50
2019-02-07T09:58:03.367Z,13.70
2019-02-07T10:00:42.732Z,13.90
2019-02-07T10:03:39.835Z,14.10
2019-02-07T10:06:34.114Z,14.30
2019-02-07T10:09:23.899Z,14.50
2019-02-07T10:12:11.114Z,14.70
2019-02-07T10:15:01.241Z,14.90
2019-02-07T10:17:48.006Z,15.00
2019-02-07T10:20:31.759Z,15.20
2019-02-07T10:23:25.892Z,15.30
2019-02-07T10:26:07.124Z,15.40
2019-02-07T10:29:10.750Z,15.50
2019-02-07T10:32:14.387Z,15.70
2019-02-07T10:35:22.927Z,15.60
2019-02-07T10:38:02.117Z,14.70
2019-02-07T10:40:49.037Z,14.40
2019-02-07T10:43:41.507Z,14.00
2019-02-07T10:46:28.384Z,13.50
2019-02-07T10:49:12.746Z,13.00
2019-02-07T10:52:16.139Z,12.70
2019-02-07T10:55:07.252Z,12.30
2019-02-07T10:58:04.442Z,12.00
2019-02-07T11:00:56.302Z,11.70
2019-02-07T11:03:51.995Z,11.40
2019-02-07T11:06:40.169Z,11.10
2019-02-07T11:09:25.327Z,10.80
2019-02-07T11:12:12.326Z,10.70
2019-02-07T11:15:10.291Z,10.50
2019-02-07T11:18:01.284Z,10.30
2019-02-07T11:20:49.607Z,10.10
2019-02-07T11:23:36.908Z,9.90
2019-02-07T11:26:34.133Z,9.80
2019-02-07T11:29:25.490Z,9.70
2019-02-07T11:32:28.972Z,9.60
2019-02-07T11:35:15.450Z,9.50
2019-02-07T11:38:21.870Z,9.30
2019-02-07T11:41:02.279Z,9.20
2019-02-07T11:43:49.171Z,9.10
2019-02-07T11:46:37.513Z,9.00
2019-02-07T11:49:37.658Z,8.80
2019-02-07T11:52:25.427Z,8.80
2019-02-07T11:55:18.743Z,8.60
2019-02-07T11:58:06.314Z,8.60
2019-02-07T12:00:53.347Z,8.50
2019-02-07T12:03:40.706Z,8.50
2019-02-07T12:06:32.914Z,8.30
2019-02-07T12:09:18.245Z,8.20
2019-02-07T12:12:04.650Z,8.10
2019-02-07T12:14:41.489Z,8.00
2019-02-07T12:17:47.748Z,7.90
2019-02-07T12:20:40.164Z,7.90
2019-02-07T12:23:30.196Z,7.80
2019-02-07T12:26:21.642Z,7.80
2019-02-07T12:29:08.248Z,7.70
2019-02-07T12:31:59.312Z,7.70
2019-02-07T12:34:43.098Z,7.60
2019-02-07T12:37:40.559Z,7.60
2019-02-07T12:40:22.431Z,7.50
2019-02-07T12:43:10.779Z,7.40
2019-02-07T12:46:11.198Z,7.40
2019-02-07T12:48:57.919Z,7.30
2019-02-07T12:51:49.221Z,7.30
2019-02-07T12:54:43.533Z,7.30
2019-02-07T12:57:44.714Z,7.20
2019-02-07T13:00:31.255Z,7.10
2019-02-07T13:03:32.367Z,7.10
2019-02-07T13:06:19.627Z,7.00
2019-02-07T13:09:07.935Z,7.00
2019-02-07T13:11:45.029Z,7.00
2019-02-07T13:14:32.743Z,7.00
2019-02-07T13:17:39.323Z,7.00
2019-02-07T13:20:27.831Z,6.90
2019-02-07T13:23:28.241Z,6.90
2019-02-07T13:26:19.852Z,6.90
2019-02-07T13:29:11.001Z,6.80
2019-02-07T13:32:06.481Z,6.80
2019-02-07T13:40:44.908Z,6.80
2019-02-07T13:43:28.201Z,6.70
2019-02-07T13:46:19.271Z,6.70
2019-02-07T13:49:05.603Z,6.70
2019-02-07T13:51:54.012Z,6.70
2019-02-07T13:54:41.210Z,6.60
2019-02-07T13:57:42.218Z,6.60
2019-02-07T14:00:40.621Z,6.60
2019-02-07T14:03:31.142Z,6.60
2019-02-07T14:06:11.524Z,6.60
2019-02-07T14:09:00.003Z,6.60
2019-02-07T14:11:51.099Z,6.50
2019-02-07T14:14:38.712Z,6.50
2019-02-07T14:17:29.904Z,6.50
2019-02-07T14:20:18.379Z,6.40
2019-02-07T14:23:18.686Z,6.40
2019-02-07T14:26:13.333Z,6.40
2019-02-07T14:29:05.100Z,6.30
2019-02-07T14:32:05.922Z,6.30
2019-02-07T14:35:00.303Z,6.30
2019-02-07T14:37:48.724Z,6.20
2019-02-07T14:40:25.480Z,6.20
2019-02-07T14:43:03.745Z,6.20
2019-02-07T14:45:50.826Z,6.10
2019-02-07T14:48:24.872Z,6.10
2019-02-07T14:50:55.526Z,6.10
2019-02-07T14:53:25.242Z,6.10
2019-02-07T14:55:54.787Z,6.00
2019-02-07T14:58:24.357Z,6.00
2019-02-07T15:00:53.818Z,6.00
2019-02-07T15:03:23.236Z,6.00
2019-02-07T15:05:52.877Z,5.90
2019-02-07T15:08:22.264Z,5.90
2019-02-07T15:10:51.816Z,5.90
2019-02-07T15:13:21.750Z,5.80
2019-02-07T15:15:51.254Z,5.80
2019-02-07T15:18:20.965Z,5.80
2019-02-07T15:20:50.433Z,5.70
2019-02-07T15:23:19.816Z,5.70
2019-02-07T15:25:49.318Z,5.60
2019-02-07T15:28:18.784Z,5.60
2019-02-07T15:30:48.239Z,5.50
2019-02-07T15:33:17.618Z,5.50
2019-02-07T15:35:49.702Z,5.40
2019-02-07T15:38:19.307Z,5.40
2019-02-07T15:40:48.895Z,5.30
2019-02-07T15:43:18.634Z,5.30
2019-02-07T15:45:48.007Z,5.20
2019-02-07T15:48:17.984Z,5.20
2019-02-07T15:50:47.328Z,5.10
2019-02-07T15:53:16.720Z,5.10
2019-02-07T15:55:46.477Z,5.00
2019-02-07T15:58:16.959Z,5.00
2019-02-07T16:01:03.679Z,4.90
2019-02-07T16:03:42.797Z,4.90
2019-02-07T16:06:12.263Z,5.00
2019-02-07T16:08:41.803Z,4.90
2019-02-07T16:11:11.270Z,4.90
2019-02-07T16:13:40.656Z,4.90
2019-02-07T16:16:10.101Z,4.90
2019-02-07T16:18:41.795Z,4.80
2019-02-07T16:21:10.647Z,4.80
2019-02-07T16:23:40.044Z,4.70
2019-02-07T16:26:11.233Z,4.70
2019-02-07T16:28:40.835Z,4.70
2019-02-07T16:31:10.864Z,4.60
2019-02-07T16:33:40.427Z,4.60
2019-02-07T16:36:10.613Z,4.60
2019-02-07T16:38:40.310Z,4.60
2019-02-07T16:41:10.594Z,4.60
2019-02-07T16:43:40.355Z,4.50
2019-02-07T16:46:10.001Z,4.40
2019-02-07T16:48:39.535Z,4.30
2019-02-07T16:51:09.268Z,4.20
2019-02-07T16:53:38.677Z,4.20
2019-02-07T16:56:08.444Z,4.10
2019-02-07T16:58:37.884Z,4.10
2019-02-07T17:01:09.158Z,4.00
2019-02-07T17:03:38.849Z,3.90
2019-02-07T17:06:08.745Z,3.90
2019-02-07T17:08:37.978Z,3.80
2019-02-07T17:11:09.912Z,3.70
2019-02-07T17:13:39.224Z,3.70
2019-02-07T17:16:08.794Z,3.60
2019-02-07T17:18:38.064Z,3.50
2019-02-07T17:21:12.064Z,3.50
2019-02-07T17:23:38.547Z,3.40
2019-02-07T17:26:07.866Z,3.40
2019-02-07T17:28:37.239Z,3.30
2019-02-07T17:31:06.832Z,3.20
2019-02-07T17:33:37.347Z,3.20
2019-02-07T17:36:06.790Z,3.20
2019-02-07T17:38:36.339Z,3.10
2019-02-07T17:41:06.011Z,3.00
2019-02-07T17:43:35.531Z,3.00
2019-02-07T17:46:04.751Z,2.90
2019-02-07T17:48:34.066Z,2.90
2019-02-07T17:51:03.441Z,2.90
2019-02-07T17:53:33.395Z,2.80
2019-02-07T17:56:02.751Z,2.80
2019-02-07T17:58:32.048Z,2.70
2019-02-07T18:01:07.877Z,2.70
2019-02-07T18:03:37.590Z,2.70
2019-02-07T18:06:08.410Z,2.60
2019-02-07T18:08:37.871Z,2.60
2019-02-07T18:11:08.746Z,2.50
2019-02-07T18:13:38.072Z,2.40
2019-02-07T18:16:07.844Z,2.40
2019-02-07T18:18:37.112Z,2.40
2019-02-07T18:21:06.439Z,2.30
2019-02-07T18:23:35.827Z,2.30
2019-02-07T18:26:05.579Z,2.30
2019-02-07T18:28:34.946Z,2.30
2019-02-07T18:31:04.402Z,2.30
2019-02-07T18:33:33.595Z,2.20
2019-02-07T18:36:03.201Z,2.20
2019-02-07T18:38:32.858Z,2.10
2019-02-07T18:41:02.301Z,2.10
2019-02-07T18:43:31.671Z,2.00
2019-02-07T18:46:01.007Z,2.00
2019-02-07T18:48:30.327Z,2.00
2019-02-07T18:50:59.676Z,1.90
2019-02-07T18:53:28.971Z,1.90
2019-02-07T18:55:58.824Z,1.80
2019-02-07T18:58:28.267Z,1.70
2019-02-07T19:00:57.567Z,1.70
2019-02-07T19:03:27.954Z,1.70
2019-02-07T19:05:57.272Z,1.70
2019-02-07T19:08:26.819Z,1.60
2019-02-07T19:10:56.326Z,1.60
2019-02-07T19:13:25.953Z,1.50
2019-02-07T19:16:08.557Z,1.60
2019-02-07T19:18:37.946Z,1.50
2019-02-07T19:21:07.467Z,1.50
2019-02-07T19:23:37.088Z,1.50
2019-02-07T19:26:06.474Z,1.40
2019-02-07T19:28:35.788Z,1.40
2019-02-07T19:31:05.195Z,1.40
2019-02-07T19:33:34.583Z,1.30
2019-02-07T19:36:04.247Z,1.30
2019-02-07T19:38:33.548Z,1.30
2019-02-07T19:41:02.944Z,1.20
2019-02-07T19:43:32.378Z,1.20
2019-02-07T19:46:02.057Z,1.20
2019-02-07T19:48:31.447Z,1.10
2019-02-07T19:51:01.191Z,1.10
2019-02-07T19:53:30.547Z,1.00
2019-02-07T19:55:59.841Z,1.00
2019-02-07T19:58:29.300Z,1.00
2019-02-07T20:00:59.452Z,0.90
2019-02-07T20:03:28.839Z,0.90
2019-02-07T20:05:59.792Z,0.90
2019-02-07T20:08:29.298Z,0.80
2019-02-07T20:11:01.492Z,0.80
2019-02-07T20:13:30.827Z,0.70
2019-02-07T20:16:00.343Z,0.70
2019-02-07T20:18:29.615Z,0.50
2019-02-07T20:20:59.563Z,0.50
2019-02-07T20:23:28.934Z,0.40
2019-02-07T20:25:58.243Z,0.40
2019-02-07T20:28:27.668Z,0.40
2019-02-07T20:30:56.972Z,0.40
2019-02-07T20:33:26.384Z,0.30
2019-02-07T20:35:58.745Z,0.30
2019-02-07T20:38:27.875Z,0.30
2019-02-07T20:40:57.784Z,0.50
2019-02-07T20:43:27.341Z,0.50
2019-02-07T20:45:56.715Z,0.50
2019-02-07T20:48:26.156Z,0.50
2019-02-07T20:50:57.656Z,0.50
2019-02-07T20:53:27.143Z,0.50
2019-02-07T20:55:56.539Z,0.50
2019-02-07T20:58:25.932Z,0.50
2019-02-07T21:00:55.540Z,0.50
2019-02-07T21:03:25.035Z,0.50
2019-02-07T21:05:54.448Z,0.50
2019-02-07T21:08:24.028Z,0.40
2019-02-07T21:10:53.731Z,0.40
2019-02-07T21:13:23.020Z,0.40
2019-02-07T21:15:52.415Z,0.40
2019-02-07T21:18:21.802Z,0.30
2019-02-07T21:20:51.270Z,0.30
2019-02-07T21:23:20.650Z,0.30
2019-02-07T21:25:51.714Z,0.20
2019-02-07T21:28:21.358Z,0.20
2019-02-07T21:30:50.759Z,0.20
2019-02-07T21:33:20.049Z,0.20
2019-02-07T21:35:49.412Z,0.20
2019-02-07T21:38:18.703Z,0.20
2019-02-07T21:40:48.060Z,0.10
2019-02-07T21:43:17.443Z,0.20
2019-02-07T21:45:46.845Z,0.10
2019-02-07T21:48:16.219Z,0.10
2019-02-07T21:50:45.575Z,0.00
2019-02-07T21:53:14.982Z,0.00
2019-02-07T21:55:44.296Z,0.00
2019-02-07T21:58:15.955Z,0.00
2019-02-07T22:00:46.081Z,0.00
2019-02-07T22:03:16.048Z,0.00
2019-02-07T22:05:47.518Z,0.00
2019-02-07T22:08:17.588Z,-0.10
2019-02-07T22:10:46.935Z,0.00
2019-02-07T22:13:16.135Z,-0.10
2019-02-07T22:15:45.463Z,-0.10
2019-02-07T22:18:15.039Z,-0.10
2019-02-07T22:20:44.455Z,-0.10
2019-02-07T22:23:13.755Z,-0.10
2019-02-07T22:25:43.124Z,-0.10
2019-02-07T22:28:12.648Z,-0.10
2019-02-07T22:30:43.152Z,-0.10
2019-02-07T22:33:12.433Z,-0.10
2019-02-07T22:35:41.810Z,-0.20
2019-02-07T22:38:11.315Z,-0.20
2019-02-07T22:40:40.703Z,-0.20
2019-02-07T22:43:10.330Z,-0.20
2019-02-07T22:45:41.597Z,-0.20
2019-02-07T22:48:13.078Z,-0.20
2019-02-07T22:50:42.394Z,-0.20
2019-02-07T22:53:12.054Z,-0.20
2019-02-07T22:55:41.352Z,-0.30
2019-02-07T22:58:10.687Z,-0.30
2019-02-07T23:01:27.395Z,-0.30
2019-02-07T23:04:06.239Z,-0.30
2019-02-07T23:06:35.680Z,-0.30
2019-02-07T23:09:27.755Z,-0.30
2019-02-07T23:12:09.977Z,-0.20
2019-02-07T23:14:40.167Z,-0.20
2019-02-07T23:17:09.233Z,-0.20
2019-02-07T23:19:38.225Z,-0.20
2019-02-07T23:22:07.245Z,-0.20
2019-02-07T23:24:40.276Z,-0.20
2019-02-07T23:27:09.380Z,-0.20
2019-02-07T23:29:39.462Z,-0.20
2019-02-07T23:32:08.739Z,-0.30
2019-02-07T23:34:37.664Z,-0.30
2019-02-07T23:37:06.987Z,-0.30
2019-02-07T23:39:35.941Z,-0.30
2019-02-07T23:42:05.516Z,-0.30
2019-02-07T23:44:34.616Z,-0.30
2019-02-07T23:47:03.537Z,-0.30
2019-02-07T23:49:32.433Z,-0.40
2019-02-07T23:52:01.450Z,-0.40
2019-02-07T23:54:30.750Z,-0.40
2019-02-07T23:56:59.824Z,-0.50
2019-02-07T23:59:29.049Z,-0.50
